»·PEaware :: UAL58 KSFO-EDDF

UAL58 :: KSFO-EDDF

FLIGHT INFORMATION

Flight Status: Arrived
Operator:
United Airlines
More flights by this operator :: More flights under this callsign
Pilot: Jamyson D. (13674)
Aircraft: Unknown
(B77W)
More flights by this aircraft type
Origin: KSFO San Francisco Intl
United States
Destination: EDDF Frankfurt/Main
Germany
More flights between these airports :: More routes between these airports
Route: SNTNA2 DEDHD KO63G REO J7 BOI J7 GTF YQD 6280N 6570N DARUB 6850N 6840N 6830N 6720N 6510N VALDI MITSI ATTUS UP992 RIMET T157 KERAX
File this flight plan on PilotEdge
Remarks:
Altitude:
(Current/Filed)
31,000ft
Speed:
(Current/Filed)
493kts
Departed: 19-Mar-18 11:16 PM
Arrived: 20-Mar-18 10:44 AM
Distance/Time
Traveled:
4936nm/11:27
Distance/Time
To Go:
Arrived

Flight Plot

Page will automatically refresh every two minutes.

Flight plan parsing failed; only flown route is shown


Map Options




Map Legend


Flown Route
Filed Route
Departure Airport
Arrival Airport
Navaid (VOR, NDB)
Fix

Horizontal Profiles

Position Reports

Time Latitude Longitude Heading Altitude Ground
Speed
19-Mar-18 23:01 37.617646 -122.392514 26 26ft 0kts
19-Mar-18 23:02 37.617646 -122.392514 26 26ft 0kts
19-Mar-18 23:03 37.617646 -122.392514 26 26ft 0kts
19-Mar-18 23:04 37.617325 -122.392722 26 26ft 2kts
19-Mar-18 23:05 37.617043 -122.392934 313 26ft 2kts
19-Mar-18 23:06 37.616810 -122.392459 297 26ft 0kts
19-Mar-18 23:07 37.616810 -122.392459 297 26ft 0kts
19-Mar-18 23:08 37.617214 -122.393426 297 26ft 20kts
19-Mar-18 23:09 37.621849 -122.392383 27 26ft 20kts
19-Mar-18 23:10 37.622291 -122.386548 117 26ft 27kts
19-Mar-18 23:11 37.618951 -122.377701 88 26ft 25kts
19-Mar-18 23:12 37.615870 -122.368362 148 26ft 19kts
19-Mar-18 23:13 37.614061 -122.368334 132 26ft 15kts
19-Mar-18 23:14 37.610644 -122.360490 111 26ft 22kts
19-Mar-18 23:15 37.616964 -122.370811 297 26ft 126kts
19-Mar-18 23:16 37.636572 -122.421547 294 1856ft 178kts
19-Mar-18 23:17 37.663737 -122.486987 301 2974ft 247kts
19-Mar-18 23:18 37.727751 -122.525704 354 4701ft 280kts
19-Mar-18 23:19 37.802973 -122.507719 49 6823ft 287kts
19-Mar-18 23:20 37.854508 -122.429051 36 8884ft 301kts
19-Mar-18 23:21 37.929154 -122.375555 27 10854ft 317kts
19-Mar-18 23:22 38.015982 -122.319746 27 11506ft 382kts
19-Mar-18 23:23 38.114723 -122.256507 26 13268ft 407kts
19-Mar-18 23:24 38.209699 -122.195043 24 15168ft 420kts
19-Mar-18 23:25 38.315617 -122.126208 23 17095ft 434kts
19-Mar-18 23:26 38.417755 -122.038480 32 18850ft 453kts
19-Mar-18 23:27 38.522272 -121.944903 28 20445ft 466kts
19-Mar-18 23:28 38.632340 -121.851498 28 21921ft 482kts
19-Mar-18 23:29 38.745257 -121.755162 28 23390ft 495kts
19-Mar-18 23:30 38.861187 -121.655841 28 24739ft 508kts
19-Mar-18 23:31 38.979994 -121.553639 27 26098ft 519kts
19-Mar-18 23:32 39.100875 -121.449223 27 27417ft 529kts
19-Mar-18 23:33 39.223969 -121.342444 27 28616ft 538kts
19-Mar-18 23:34 39.340561 -121.240884 27 29608ft 547kts
19-Mar-18 23:35 39.466454 -121.130741 26 30886ft 546kts
19-Mar-18 23:36 39.592286 -121.020179 26 31145ft 547kts
19-Mar-18 23:37 39.718272 -120.908978 26 31147ft 546kts
19-Mar-18 23:38 39.843477 -120.797968 26 31150ft 545kts
19-Mar-18 23:39 39.968607 -120.686525 26 31153ft 543kts
19-Mar-18 23:40 40.092866 -120.575357 26 31157ft 541kts
19-Mar-18 23:41 40.216840 -120.463944 26 31159ft 541kts
19-Mar-18 23:42 40.340985 -120.351872 26 31159ft 540kts
19-Mar-18 23:43 40.464486 -120.239872 26 31159ft 540kts
19-Mar-18 23:44 40.578968 -120.135594 26 31736ft 542kts
19-Mar-18 23:45 40.702824 -120.022273 26 32818ft 541kts
19-Mar-18 23:46 40.826075 -119.908988 26 33144ft 539kts
19-Mar-18 23:47 40.948646 -119.795819 26 33153ft 538kts
19-Mar-18 23:48 41.071565 -119.681794 26 33150ft 538kts
19-Mar-18 23:49 41.193895 -119.567787 26 33148ft 537kts
19-Mar-18 23:50 41.316049 -119.453402 26 33147ft 538kts
19-Mar-18 23:51 41.438514 -119.338202 26 33146ft 538kts
19-Mar-18 23:52 41.560423 -119.222982 26 33143ft 537kts
19-Mar-18 23:53 41.682355 -119.107194 26 33141ft 537kts
19-Mar-18 23:54 41.794786 -118.999938 26 33139ft 535kts
19-Mar-18 23:55 41.915792 -118.883973 26 33136ft 535kts
19-Mar-18 23:56 42.036824 -118.767431 26 33131ft 534kts
19-Mar-18 23:57 42.157397 -118.650776 26 33127ft 534kts
19-Mar-18 23:58 42.277634 -118.533886 26 33123ft 533kts
19-Mar-18 23:59 42.398089 -118.416219 26 33119ft 533kts
20-Mar-18 00:00 42.518052 -118.298469 26 33115ft 533kts
20-Mar-18 00:01 42.637925 -118.180228 26 33113ft 533kts
20-Mar-18 00:02 42.758189 -118.061023 26 33113ft 534kts
20-Mar-18 00:03 42.877823 -117.941850 26 33114ft 531kts
20-Mar-18 00:04 42.991304 -117.828284 26 33121ft 530kts
20-Mar-18 00:05 43.110326 -117.708588 26 33129ft 529kts
20-Mar-18 00:06 43.228614 -117.589051 26 33138ft 529kts
20-Mar-18 00:07 43.346805 -117.469008 26 33147ft 529kts
20-Mar-18 00:08 43.465382 -117.347981 26 33158ft 530kts
20-Mar-18 00:09 43.583266 -117.227055 26 33165ft 528kts
20-Mar-18 00:10 43.701318 -117.105354 26 33168ft 529kts
20-Mar-18 00:11 43.818757 -116.983672 26 33171ft 527kts
20-Mar-18 00:12 43.935858 -116.861726 26 33176ft 527kts
20-Mar-18 00:13 44.052973 -116.739201 27 33174ft 523kts
20-Mar-18 00:14 44.162975 -116.623463 27 33170ft 521kts
20-Mar-18 00:15 44.278253 -116.501606 27 33159ft 520kts
20-Mar-18 00:16 44.393676 -116.378991 27 33149ft 520kts
20-Mar-18 00:17 44.508588 -116.256299 27 33138ft 520kts
20-Mar-18 00:18 44.623188 -116.133316 27 33126ft 519kts
20-Mar-18 00:19 44.737465 -116.010059 28 33122ft 515kts
20-Mar-18 00:20 44.850621 -115.887382 29 33122ft 512kts
20-Mar-18 00:21 44.962932 -115.765000 29 33126ft 509kts
20-Mar-18 00:22 45.074782 -115.642500 30 33134ft 506kts
20-Mar-18 00:23 45.185590 -115.520516 31 33130ft 503kts
20-Mar-18 00:24 45.290564 -115.404383 31 33154ft 501kts
20-Mar-18 00:25 45.400197 -115.282496 31 33166ft 500kts
20-Mar-18 00:26 45.509354 -115.160528 32 33177ft 499kts
20-Mar-18 00:27 45.618633 -115.037812 32 33186ft 498kts
20-Mar-18 00:28 45.727171 -114.915288 32 33190ft 497kts
20-Mar-18 00:29 45.835720 -114.792134 33 33191ft 496kts
20-Mar-18 00:30 45.943495 -114.669234 33 33190ft 495kts
20-Mar-18 00:31 46.050639 -114.546456 34 33186ft 489kts
20-Mar-18 00:32 46.156729 -114.424211 34 33180ft 488kts
20-Mar-18 00:33 46.262575 -114.301647 34 33167ft 488kts
20-Mar-18 00:34 46.363443 -114.184265 34 33160ft 488kts
20-Mar-18 00:35 46.469280 -114.060489 34 33156ft 488kts
20-Mar-18 00:36 46.574484 -113.936811 34 33153ft 486kts
20-Mar-18 00:37 46.679187 -113.813097 35 33143ft 484kts
20-Mar-18 00:38 46.783661 -113.689009 35 33143ft 482kts
20-Mar-18 00:39 46.887196 -113.565404 35 33140ft 480kts
20-Mar-18 00:40 46.990240 -113.441747 35 33131ft 478kts
20-Mar-18 00:41 47.093102 -113.317676 36 33122ft 477kts
20-Mar-18 00:42 47.195232 -113.193849 36 33109ft 476kts
20-Mar-18 00:43 47.297289 -113.069474 36 33097ft 475kts
20-Mar-18 00:44 47.393969 -112.951056 36 33088ft 474kts
20-Mar-18 00:45 47.495061 -112.826601 36 33077ft 473kts
20-Mar-18 00:46 47.596178 -112.701471 36 33067ft 472kts
20-Mar-18 00:47 47.696593 -112.576560 36 33038ft 471kts
20-Mar-18 00:48 47.796597 -112.451515 37 33018ft 469kts
20-Mar-18 00:49 47.896513 -112.325924 37 33000ft 468kts
20-Mar-18 00:50 47.995709 -112.200587 37 32997ft 467kts
20-Mar-18 00:51 48.094595 -112.074989 37 32993ft 467kts
20-Mar-18 00:52 48.193683 -111.948472 37 32988ft 467kts
20-Mar-18 00:53 48.292284 -111.821913 37 32987ft 467kts
20-Mar-18 00:54 48.383551 -111.704170 37 32986ft 467kts
20-Mar-18 00:55 48.482104 -111.576377 37 32986ft 466kts
20-Mar-18 00:56 48.580078 -111.448657 38 32988ft 466kts
20-Mar-18 00:57 48.678189 -111.320075 38 32982ft 465kts
20-Mar-18 00:58 48.775635 -111.191680 38 32983ft 465kts
20-Mar-18 00:59 48.872907 -111.062831 38 32987ft 464kts
20-Mar-18 01:00 48.954107 -110.954737 38 32990ft 464kts
20-Mar-18 01:01 49.066920 -110.803751 38 33002ft 463kts
20-Mar-18 01:02 49.147290 -110.695603 38 33005ft 462kts
20-Mar-18 01:03 49.259895 -110.543258 39 33004ft 462kts
20-Mar-18 01:04 49.348826 -110.422255 39 32993ft 461kts
20-Mar-18 01:05 49.428493 -110.313339 39 32992ft 460kts
20-Mar-18 01:06 49.539929 -110.160158 39 32990ft 459kts
20-Mar-18 01:07 49.618945 -110.050949 39 32988ft 458kts
20-Mar-18 01:08 49.713611 -109.919451 39 32988ft 458kts
20-Mar-18 01:09 49.808295 -109.787205 39 32988ft 457kts
20-Mar-18 01:10 49.902801 -109.654481 39 32988ft 458kts
20-Mar-18 01:11 49.997063 -109.521365 39 32989ft 459kts
20-Mar-18 01:12 50.091052 -109.387899 40 32984ft 458kts
20-Mar-18 01:13 50.185174 -109.253497 40 32984ft 458kts
20-Mar-18 01:14 50.274488 -109.125264 40 32987ft 458kts
20-Mar-18 01:15 50.368155 -108.990043 40 32988ft 459kts
20-Mar-18 01:16 50.462061 -108.853710 40 32989ft 459kts
20-Mar-18 01:17 50.555570 -108.717181 40 32990ft 459kts
20-Mar-18 01:18 50.648941 -108.580081 40 32990ft 459kts
20-Mar-18 01:19 50.741854 -108.442872 40 32981ft 459kts
20-Mar-18 01:20 50.834893 -108.304692 40 32981ft 459kts
20-Mar-18 01:21 50.927706 -108.166052 41 32986ft 459kts
20-Mar-18 01:22 51.020608 -108.026478 41 32987ft 459kts
20-Mar-18 01:23 51.113028 -107.886816 41 32990ft 459kts
20-Mar-18 01:24 51.198869 -107.756368 41 32994ft 459kts
20-Mar-18 01:25 51.291013 -107.615555 41 33011ft 459kts
20-Mar-18 01:26 51.382990 -107.474168 41 33027ft 459kts
20-Mar-18 01:27 51.475118 -107.331718 41 33030ft 459kts
20-Mar-18 01:28 51.566789 -107.189133 41 33033ft 459kts
20-Mar-18 01:29 51.658285 -107.045968 41 33035ft 459kts
20-Mar-18 01:30 51.749991 -106.901628 41 33037ft 460kts
20-Mar-18 01:31 51.840845 -106.757769 42 33038ft 460kts
20-Mar-18 01:32 51.931979 -106.612600 42 33041ft 460kts
20-Mar-18 01:33 52.023251 -106.466331 42 33040ft 460kts
20-Mar-18 01:34 52.109596 -106.327127 41 33041ft 459kts
20-Mar-18 01:35 52.200007 -106.180516 42 33042ft 459kts
20-Mar-18 01:36 52.290554 -106.032783 42 33043ft 459kts
20-Mar-18 01:37 52.380602 -105.884964 42 33046ft 459kts
20-Mar-18 01:38 52.470467 -105.736541 42 33050ft 459kts
20-Mar-18 01:39 52.560635 -105.586687 42 33063ft 460kts
20-Mar-18 01:40 52.650333 -105.436687 42 33063ft 460kts
20-Mar-18 01:41 52.740153 -105.285549 42 33066ft 460kts
20-Mar-18 01:42 52.829604 -105.134085 43 33069ft 461kts
20-Mar-18 01:43 52.918929 -104.981878 43 33071ft 461kts
20-Mar-18 01:44 53.004094 -104.835862 43 33074ft 462kts
20-Mar-18 01:45 53.093089 -104.682333 43 33078ft 462kts
20-Mar-18 01:46 53.181989 -104.527988 43 33083ft 462kts
20-Mar-18 01:47 53.270789 -104.372832 43 33087ft 461kts
20-Mar-18 01:48 53.358967 -104.217764 43 33089ft 460kts
20-Mar-18 01:49 53.446828 -104.062259 44 33089ft 460kts
20-Mar-18 01:50 53.534818 -103.905520 44 33090ft 461kts
20-Mar-18 01:51 53.622424 -103.748447 44 33090ft 461kts
20-Mar-18 01:52 53.709850 -103.590676 44 33091ft 461kts
20-Mar-18 01:53 53.797480 -103.431498 45 33091ft 462kts
20-Mar-18 01:54 53.880765 -103.279233 45 33093ft 464kts
20-Mar-18 01:55 53.968532 -103.117732 45 33096ft 465kts
20-Mar-18 01:56 54.056045 -102.955623 45 33102ft 465kts
20-Mar-18 01:57 54.143238 -102.793012 46 33106ft 466kts
20-Mar-18 01:58 54.230829 -102.628539 46 33111ft 468kts
20-Mar-18 01:59 54.318217 -102.463351 46 33116ft 469kts
20-Mar-18 02:00 54.405516 -102.297189 46 33119ft 470kts
20-Mar-18 02:01 54.492938 -102.129628 46 33122ft 470kts
20-Mar-18 02:02 54.579808 -101.961997 47 33124ft 469kts
20-Mar-18 02:03 54.666527 -101.793474 47 33125ft 470kts
20-Mar-18 02:04 54.749312 -101.631495 47 33124ft 469kts
20-Mar-18 02:05 54.835436 -101.461827 47 33123ft 470kts
20-Mar-18 02:06 54.921353 -101.291374 47 33122ft 469kts
20-Mar-18 02:07 55.007262 -101.119724 48 33121ft 469kts
20-Mar-18 02:08 55.092598 -100.948011 48 33160ft 469kts
20-Mar-18 02:09 55.177790 -100.775359 48 33162ft 469kts
20-Mar-18 02:10 55.262992 -100.601447 48 33163ft 469kts
20-Mar-18 02:11 55.347615 -100.427475 48 33165ft 469kts
20-Mar-18 02:12 55.432204 -100.252309 48 33167ft 468kts
20-Mar-18 02:13 55.516191 -100.077126 49 33169ft 468kts
20-Mar-18 02:14 55.595883 -99.909726 49 33172ft 468kts
20-Mar-18 02:15 55.679607 -99.732598 49 33176ft 468kts
20-Mar-18 02:16 55.762952 -99.554974 49 33180ft 469kts
20-Mar-18 02:17 55.846080 -99.376502 49 33178ft 469kts
20-Mar-18 02:18 55.929331 -99.196437 49 33184ft 470kts
20-Mar-18 02:19 56.012122 -99.016024 50 33169ft 470kts
20-Mar-18 02:20 56.094586 -98.834980 50 33173ft 470kts
20-Mar-18 02:21 56.177049 -98.652574 50 33177ft 470kts
20-Mar-18 02:22 56.259158 -98.469568 50 33193ft 471kts
20-Mar-18 02:23 56.341135 -98.285463 50 33197ft 471kts
20-Mar-18 02:24 56.419571 -98.107987 50 33197ft 471kts
20-Mar-18 02:25 56.501013 -97.922320 50 33189ft 472kts
20-Mar-18 02:26 56.582268 -97.735643 50 33202ft 471kts
20-Mar-18 02:27 56.663415 -97.547763 51 33205ft 472kts
20-Mar-18 02:28 56.743933 -97.359870 51 33207ft 471kts
20-Mar-18 02:29 56.824370 -97.170718 51 33210ft 471kts
20-Mar-18 02:30 56.904288 -96.981293 51 33212ft 471kts
20-Mar-18 02:31 56.983942 -96.791000 51 33215ft 471kts
20-Mar-18 02:32 57.063572 -96.599247 51 33218ft 471kts
20-Mar-18 02:33 57.142503 -96.407668 52 33220ft 470kts
20-Mar-18 02:34 57.215575 -96.228929 52 33223ft 470kts
20-Mar-18 02:35 57.294216 -96.035073 52 33225ft 470kts
20-Mar-18 02:36 57.372309 -95.841010 52 33226ft 470kts
20-Mar-18 02:37 57.450121 -95.646075 52 33227ft 470kts
20-Mar-18 02:38 57.527892 -95.449651 52 33227ft 471kts
20-Mar-18 02:39 57.605108 -95.253018 52 33228ft 471kts
20-Mar-18 02:40 57.682051 -95.055469 53 33228ft 471kts
20-Mar-18 02:41 57.758957 -94.856371 53 33229ft 471kts
20-Mar-18 02:42 57.835262 -94.657182 53 33233ft 471kts
20-Mar-18 02:43 57.911508 -94.456476 53 33234ft 471kts
20-Mar-18 02:44 57.983739 -94.264769 53 33234ft 471kts
20-Mar-18 02:45 58.059125 -94.063039 53 33235ft 471kts
20-Mar-18 02:46 58.134423 -93.859830 53 33241ft 471kts
20-Mar-18 02:47 58.209179 -93.656354 54 33241ft 471kts
20-Mar-18 02:48 58.283705 -93.451761 54 33240ft 472kts
20-Mar-18 02:49 58.358287 -93.245243 54 33240ft 473kts
20-Mar-18 02:50 58.432420 -93.038167 54 33239ft 473kts
20-Mar-18 02:51 58.506284 -92.830036 54 33239ft 474kts
20-Mar-18 02:52 58.580080 -92.620259 54 33237ft 474kts
20-Mar-18 02:53 58.653069 -92.410935 54 33236ft 474kts
20-Mar-18 02:54 58.722825 -92.209136 55 33239ft 474kts
20-Mar-18 02:55 58.795640 -91.996639 55 33233ft 474kts
20-Mar-18 02:56 58.867940 -91.783734 55 33229ft 475kts
20-Mar-18 02:57 58.939962 -91.569725 55 33227ft 475kts
20-Mar-18 02:58 59.012063 -91.353510 55 33647ft 477kts
20-Mar-18 02:59 59.083604 -91.137002 56 34651ft 478kts
20-Mar-18 03:00 59.155397 -90.917709 56 35226ft 480kts
20-Mar-18 03:01 59.226634 -90.698059 56 35221ft 480kts
20-Mar-18 03:02 59.297581 -90.477238 56 35223ft 480kts
20-Mar-18 03:03 59.366733 -90.259984 56 35220ft 481kts
20-Mar-18 03:04 59.433764 -90.047442 57 35217ft 481kts
20-Mar-18 03:05 59.503800 -89.823294 57 35213ft 482kts
20-Mar-18 03:06 59.573722 -89.597333 57 35210ft 482kts
20-Mar-18 03:07 59.643017 -89.371211 58 35202ft 482kts
20-Mar-18 03:08 59.711948 -89.144072 58 35193ft 482kts
20-Mar-18 03:09 59.780730 -88.915173 58 35189ft 482kts
20-Mar-18 03:10 59.848952 -88.685881 58 35184ft 483kts
20-Mar-18 03:11 59.916881 -88.455281 58 35180ft 484kts
20-Mar-18 03:12 59.984765 -88.222507 59 35176ft 484kts
20-Mar-18 03:13 60.049163 -87.999482 59 35172ft 484kts
20-Mar-18 03:14 60.116186 -87.765037 59 35168ft 485kts
20-Mar-18 03:15 60.182733 -87.529858 59 35179ft 485kts
20-Mar-18 03:16 60.249010 -87.293196 59 35176ft 487kts
20-Mar-18 03:17 60.315239 -87.054218 60 35173ft 487kts
20-Mar-18 03:18 60.380891 -86.814815 60 35170ft 488kts
20-Mar-18 03:19 60.446174 -86.574221 60 35161ft 488kts
20-Mar-18 03:20 60.500491 -86.372072 60 35158ft 488kts
20-Mar-18 03:21 60.575617 -86.089473 61 35217ft 488kts
20-Mar-18 03:22 60.639624 -85.845828 61 35212ft 489kts
20-Mar-18 03:23 60.692919 -85.640935 61 35206ft 489kts
20-Mar-18 03:24 60.764070 -85.364423 61 35191ft 490kts
20-Mar-18 03:25 60.816554 -85.158240 61 35186ft 490kts
20-Mar-18 03:26 60.879341 -84.909050 62 35182ft 491kts
20-Mar-18 03:27 60.941466 -84.659682 62 35178ft 491kts
20-Mar-18 03:28 61.003164 -84.409217 62 35174ft 491kts
20-Mar-18 03:29 61.064739 -84.156381 62 35170ft 492kts
20-Mar-18 03:30 61.125660 -83.903334 63 35160ft 492kts
20-Mar-18 03:31 61.186425 -83.647995 63 35156ft 493kts
20-Mar-18 03:32 61.246555 -83.392352 63 35154ft 493kts
20-Mar-18 03:33 61.306231 -83.135636 63 35171ft 494kts
20-Mar-18 03:34 61.361388 -82.895649 63 35170ft 494kts
20-Mar-18 03:35 61.420237 -82.636642 64 35169ft 495kts
20-Mar-18 03:36 61.478660 -82.376428 64 35169ft 495kts
20-Mar-18 03:37 61.536795 -82.114374 64 35169ft 495kts
20-Mar-18 03:38 61.594337 -81.851881 65 35175ft 496kts
20-Mar-18 03:39 61.651463 -81.588167 65 35176ft 496kts
20-Mar-18 03:40 61.708307 -81.322661 65 35178ft 496kts
20-Mar-18 03:41 61.764550 -81.056972 65 35179ft 496kts
20-Mar-18 03:42 61.820417 -80.790291 65 35181ft 497kts
20-Mar-18 03:43 61.880994 -80.527334 53 35184ft 496kts
20-Mar-18 03:44 61.941108 -80.280808 71 35185ft 498kts
20-Mar-18 03:45 61.998363 -80.012206 63 35184ft 498kts
20-Mar-18 03:46 62.079424 -79.774720 49 35188ft 497kts
20-Mar-18 03:47 62.165700 -79.544064 51 35186ft 498kts
20-Mar-18 03:48 62.251118 -79.309266 50 35187ft 499kts
20-Mar-18 03:49 62.336369 -79.074454 51 35188ft 499kts
20-Mar-18 03:50 62.420681 -78.836976 52 35188ft 500kts
20-Mar-18 03:51 62.504900 -78.596924 52 35185ft 500kts
20-Mar-18 03:52 62.588469 -78.356151 52 35186ft 501kts
20-Mar-18 03:53 62.671768 -78.113593 52 35186ft 501kts
20-Mar-18 03:54 62.751039 -77.880339 53 35179ft 501kts
20-Mar-18 03:55 62.833561 -77.634952 53 35169ft 502kts
20-Mar-18 03:56 62.915945 -77.387307 53 35158ft 502kts
20-Mar-18 03:57 62.997686 -77.138904 53 35146ft 503kts
20-Mar-18 03:58 63.079147 -76.888613 53 35138ft 503kts
20-Mar-18 03:59 63.160453 -76.636026 54 35128ft 503kts
20-Mar-18 04:00 63.241064 -76.382795 54 35119ft 504kts
20-Mar-18 04:01 63.321414 -76.127532 54 35112ft 505kts
20-Mar-18 04:02 63.401633 -75.869787 55 35107ft 505kts
20-Mar-18 04:03 63.481125 -75.611435 55 35091ft 505kts
20-Mar-18 04:04 63.554461 -75.370468 55 35078ft 503kts
20-Mar-18 04:05 63.632998 -75.109538 55 35077ft 503kts
20-Mar-18 04:06 63.710811 -74.847986 55 35076ft 503kts
20-Mar-18 04:07 63.788191 -74.584854 56 35074ft 503kts
20-Mar-18 04:08 63.865498 -74.318864 56 35072ft 504kts
20-Mar-18 04:09 63.942102 -74.052155 56 35069ft 505kts
20-Mar-18 04:10 64.018212 -73.783993 56 35066ft 505kts
20-Mar-18 04:11 64.094091 -73.513414 57 35063ft 505kts
20-Mar-18 04:12 64.169378 -73.241681 57 35059ft 506kts
20-Mar-18 04:13 64.244477 -72.967294 58 35055ft 507kts
20-Mar-18 04:14 64.315523 -72.704575 58 35007ft 507kts
20-Mar-18 04:15 64.389436 -72.427929 58 35003ft 507kts
20-Mar-18 04:16 64.463078 -72.148836 58 34998ft 507kts
20-Mar-18 04:17 64.535925 -71.869254 59 35000ft 506kts
20-Mar-18 04:18 64.608250 -71.588150 59 35010ft 507kts
20-Mar-18 04:19 64.680253 -71.304698 59 34995ft 507kts
20-Mar-18 04:20 64.751538 -71.020443 60 34983ft 508kts
20-Mar-18 04:21 64.822342 -70.734426 60 34980ft 507kts
20-Mar-18 04:22 64.893652 -70.447166 60 34977ft 507kts
20-Mar-18 04:23 64.961522 -70.162104 61 35007ft 508kts
20-Mar-18 04:24 65.029452 -69.880018 60 35009ft 508kts
20-Mar-18 04:25 65.100665 -69.590067 60 35005ft 508kts
20-Mar-18 04:26 65.170511 -69.298978 60 35001ft 507kts
20-Mar-18 04:27 65.242562 -69.008914 60 34996ft 507kts
20-Mar-18 04:28 65.312572 -68.716834 61 34991ft 507kts
20-Mar-18 04:29 65.381708 -68.422845 61 34958ft 508kts
20-Mar-18 04:30 65.450529 -68.126012 61 34947ft 508kts
20-Mar-18 04:31 65.518626 -67.828212 62 34944ft 508kts
20-Mar-18 04:32 65.586002 -67.529458 62 34915ft 506kts
20-Mar-18 04:33 65.650328 -67.240300 62 34915ft 506kts
20-Mar-18 04:34 65.714388 -66.948402 62 34923ft 505kts
20-Mar-18 04:35 65.779688 -66.646681 63 34922ft 504kts
20-Mar-18 04:36 65.844574 -66.342575 63 34930ft 505kts
20-Mar-18 04:37 65.908738 -66.037488 63 34938ft 506kts
20-Mar-18 04:38 65.972349 -65.730598 64 34944ft 505kts
20-Mar-18 04:39 66.035422 -65.421828 64 34946ft 505kts
20-Mar-18 04:40 66.097717 -65.112309 65 34943ft 504kts
20-Mar-18 04:41 66.159360 -64.801430 65 34936ft 502kts
20-Mar-18 04:42 66.219888 -64.491562 65 34921ft 499kts
20-Mar-18 04:43 66.276106 -64.199514 65 34912ft 497kts
20-Mar-18 04:44 66.335713 -63.885254 66 34879ft 496kts
20-Mar-18 04:45 66.393877 -63.573857 66 34830ft 496kts
20-Mar-18 04:46 66.451682 -63.259555 66 34705ft 496kts
20-Mar-18 04:47 66.508624 -62.945084 67 34704ft 497kts
20-Mar-18 04:48 66.564926 -62.629212 67 34705ft 496kts
20-Mar-18 04:49 66.620591 -62.311909 67 34708ft 494kts
20-Mar-18 04:50 66.675308 -61.994982 67 34707ft 493kts
20-Mar-18 04:51 66.729233 -61.677551 68 34707ft 491kts
20-Mar-18 04:52 66.782645 -61.357973 68 34707ft 492kts
20-Mar-18 04:53 66.832943 -61.052135 68 34707ft 491kts
20-Mar-18 04:54 66.884992 -60.731496 67 34707ft 491kts
20-Mar-18 04:55 66.936931 -60.409665 69 34708ft 490kts
20-Mar-18 04:56 66.986633 -60.086918 69 34707ft 489kts
20-Mar-18 04:57 67.032763 -59.760826 73 34706ft 486kts
20-Mar-18 04:58 67.074740 -59.430953 73 34705ft 486kts
20-Mar-18 04:59 67.116438 -59.101980 71 34704ft 485kts
20-Mar-18 05:00 67.160821 -58.773990 72 34703ft 484kts
20-Mar-18 05:01 67.202473 -58.445025 73 34702ft 483kts
20-Mar-18 05:02 67.243181 -58.114780 73 34700ft 483kts
20-Mar-18 05:03 67.280661 -57.804444 74 34699ft 482kts
20-Mar-18 05:04 67.319850 -57.473405 74 34705ft 481kts
20-Mar-18 05:05 67.358400 -57.140899 74 34704ft 479kts
20-Mar-18 05:06 67.396014 -56.809563 74 34704ft 478kts
20-Mar-18 05:07 67.432859 -56.477973 75 34691ft 477kts
20-Mar-18 05:08 67.469123 -56.144421 75 34690ft 477kts
20-Mar-18 05:09 67.504576 -55.811011 75 34689ft 477kts
20-Mar-18 05:10 67.539254 -55.477435 76 34688ft 476kts
20-Mar-18 05:11 67.573277 -55.142621 76 34686ft 474kts
20-Mar-18 05:12 67.606391 -54.809040 76 34685ft 473kts
20-Mar-18 05:13 67.637328 -54.490096 77 34684ft 472kts
20-Mar-18 05:14 67.669148 -54.154208 77 34683ft 473kts
20-Mar-18 05:15 67.700188 -53.818342 78 34682ft 473kts
20-Mar-18 05:16 67.730505 -53.481944 78 34682ft 472kts
20-Mar-18 05:17 67.760158 -53.144351 78 34681ft 471kts
20-Mar-18 05:18 67.788945 -52.807812 78 34680ft 470kts
20-Mar-18 05:19 67.817041 -52.470597 79 34681ft 470kts
20-Mar-18 05:20 67.844543 -52.131235 79 34680ft 470kts
20-Mar-18 05:21 67.871257 -51.792174 80 34680ft 470kts
20-Mar-18 05:22 67.897335 -51.451500 80 34680ft 469kts
20-Mar-18 05:23 67.921455 -51.127173 80 34680ft 469kts
20-Mar-18 05:24 67.946297 -50.787814 79 34680ft 468kts
20-Mar-18 05:25 67.970725 -50.447352 81 34680ft 467kts
20-Mar-18 05:26 67.992996 -50.106939 82 34680ft 466kts
20-Mar-18 05:27 68.008644 -49.764805 88 34681ft 465kts
20-Mar-18 05:28 68.015350 -49.419414 88 34681ft 466kts
20-Mar-18 05:29 68.022353 -49.073997 88 34682ft 467kts
20-Mar-18 05:30 68.032922 -48.728981 87 34682ft 465kts
20-Mar-18 05:31 68.040895 -48.384404 88 34683ft 462kts
20-Mar-18 05:32 68.047603 -48.043121 89 34683ft 459kts
20-Mar-18 05:33 68.053140 -47.726593 89 34683ft 459kts
20-Mar-18 05:34 68.058443 -47.383864 89 34684ft 462kts
20-Mar-18 05:35 68.063047 -47.039874 90 34685ft 465kts
20-Mar-18 05:36 68.066961 -46.693132 90 34684ft 465kts
20-Mar-18 05:37 68.070137 -46.347919 90 34685ft 464kts
20-Mar-18 05:38 68.072228 -46.060980 90 34686ft 463kts
20-Mar-18 05:39 68.074319 -45.658618 91 34686ft 463kts
20-Mar-18 05:40 68.075334 -45.313812 91 34705ft 465kts
20-Mar-18 05:41 68.075629 -45.025297 91 34710ft 466kts
20-Mar-18 05:42 68.075318 -44.677499 92 34713ft 466kts
20-Mar-18 05:43 68.074144 -44.298032 92 34717ft 464kts
20-Mar-18 05:44 68.072325 -43.953565 92 34720ft 463kts
20-Mar-18 05:45 68.070253 -43.665707 92 34742ft 463kts
20-Mar-18 05:46 68.067113 -43.320874 93 34745ft 465kts
20-Mar-18 05:47 68.063242 -42.975179 93 34748ft 466kts
20-Mar-18 05:48 68.058630 -42.628238 93 34751ft 466kts
20-Mar-18 05:49 68.053317 -42.283014 94 34754ft 464kts
20-Mar-18 05:50 68.047285 -41.938008 94 34758ft 463kts
20-Mar-18 05:51 68.040563 -41.594633 94 34762ft 464kts
20-Mar-18 05:52 68.033104 -41.250263 94 34765ft 466kts
20-Mar-18 05:53 68.025174 -40.916007 95 34768ft 467kts
20-Mar-18 05:54 68.017707 -40.573308 95 34766ft 467kts
20-Mar-18 05:55 68.007062 -40.228900 95 34769ft 465kts
20-Mar-18 05:56 68.001615 -39.883864 88 34772ft 466kts
20-Mar-18 05:57 68.011638 -39.539057 87 34774ft 468kts
20-Mar-18 05:58 68.019829 -39.192370 88 34776ft 469kts
20-Mar-18 05:59 68.029594 -38.843433 86 34778ft 471kts
20-Mar-18 06:00 68.038520 -38.495200 87 34779ft 470kts
20-Mar-18 06:01 68.045639 -38.147295 88 34781ft 469kts
20-Mar-18 06:02 68.051928 -37.798891 88 34782ft 468kts
20-Mar-18 06:03 68.057180 -37.469676 88 34783ft 469kts
20-Mar-18 06:04 68.062080 -37.116498 88 34770ft 472kts
20-Mar-18 06:05 68.066204 -36.765378 89 34787ft 473kts
20-Mar-18 06:06 68.069584 -36.413999 89 34788ft 472kts
20-Mar-18 06:07 68.072217 -36.062542 90 34789ft 471kts
20-Mar-18 06:08 68.074092 -35.713000 90 34790ft 471kts
20-Mar-18 06:09 68.075231 -35.362452 90 34791ft 473kts
20-Mar-18 06:10 68.075629 -35.009183 90 34792ft 474kts
20-Mar-18 06:11 68.075274 -34.656617 91 34793ft 474kts
20-Mar-18 06:12 68.074172 -34.304962 91 34794ft 472kts
20-Mar-18 06:13 68.072478 -33.978324 92 34795ft 470kts
20-Mar-18 06:14 68.069950 -33.628775 92 34796ft 471kts
20-Mar-18 06:15 68.066654 -33.276490 92 34797ft 474kts
20-Mar-18 06:16 68.062596 -32.922893 92 34799ft 477kts
20-Mar-18 06:17 68.057756 -32.568238 93 34800ft 478kts
20-Mar-18 06:18 68.052147 -32.212907 93 34795ft 477kts
20-Mar-18 06:19 68.045815 -31.859852 93 34797ft 476kts
20-Mar-18 06:20 68.038724 -31.506726 94 34799ft 477kts
20-Mar-18 06:21 68.030810 -31.150749 94 34801ft 480kts
20-Mar-18 06:22 68.022452 -30.794002 93 34804ft 483kts
20-Mar-18 06:23 68.014012 -30.452790 95 34805ft 482kts
20-Mar-18 06:24 68.002954 -30.095900 95 34807ft 481kts
20-Mar-18 06:25 67.984464 -29.743982 102 34809ft 480kts
20-Mar-18 06:26 67.957527 -29.396310 102 34811ft 480kts
20-Mar-18 06:27 67.931061 -29.047060 101 34812ft 481kts
20-Mar-18 06:28 67.907909 -28.696534 101 34815ft 482kts
20-Mar-18 06:29 67.881854 -28.346839 102 34817ft 484kts
20-Mar-18 06:30 67.854598 -27.996423 103 34820ft 484kts
20-Mar-18 06:31 67.826639 -27.647757 103 34822ft 484kts
20-Mar-18 06:32 67.797807 -27.298461 104 34854ft 487kts
20-Mar-18 06:33 67.770228 -26.973235 104 35837ft 487kts
20-Mar-18 06:34 67.739804 -26.623852 104 36676ft 491kts
20-Mar-18 06:35 67.708352 -26.272249 104 36828ft 492kts
20-Mar-18 06:36 67.676201 -25.922203 105 36829ft 493kts
20-Mar-18 06:37 67.643292 -25.573025 105 36831ft 493kts
20-Mar-18 06:38 67.609533 -25.223763 105 36832ft 492kts
20-Mar-18 06:39 67.575121 -24.876445 106 36837ft 493kts
20-Mar-18 06:40 67.539868 -24.529197 106 36838ft 495kts
20-Mar-18 06:41 67.503688 -24.181197 106 36839ft 495kts
20-Mar-18 06:42 67.466860 -23.835152 107 36840ft 496kts
20-Mar-18 06:43 67.431841 -23.513345 107 36841ft 496kts
20-Mar-18 06:44 67.393421 -23.167894 107 36844ft 496kts
20-Mar-18 06:45 67.354342 -22.824260 108 36844ft 497kts
20-Mar-18 06:46 67.314345 -22.480141 108 36844ft 498kts
20-Mar-18 06:47 67.273671 -22.137616 108 36844ft 499kts
20-Mar-18 06:48 67.232238 -21.796008 108 36865ft 499kts
20-Mar-18 06:49 67.189839 -21.453630 109 36870ft 499kts
20-Mar-18 06:50 67.146908 -21.113975 109 36873ft 499kts
20-Mar-18 06:51 67.103275 -20.775350 109 36878ft 500kts
20-Mar-18 06:52 67.059508 -20.435487 110 36883ft 501kts
20-Mar-18 06:53 67.015664 -20.114669 110 36886ft 501kts
20-Mar-18 06:54 66.966670 -19.782191 114 36891ft 501kts
20-Mar-18 06:55 66.912694 -19.452851 114 36926ft 502kts
20-Mar-18 06:56 66.858948 -19.125500 112 36927ft 502kts
20-Mar-18 06:57 66.807553 -18.795791 113 36928ft 503kts
20-Mar-18 06:58 66.753531 -18.468226 114 36929ft 502kts
20-Mar-18 06:59 66.698819 -18.143607 114 36929ft 502kts
20-Mar-18 07:00 66.643260 -17.819535 114 36972ft 504kts
20-Mar-18 07:01 66.587032 -17.496918 115 36972ft 504kts
20-Mar-18 07:02 66.530130 -17.175691 115 36974ft 504kts
20-Mar-18 07:03 66.474724 -16.867808 115 36978ft 506kts
20-Mar-18 07:04 66.416308 -16.548207 116 36961ft 506kts
20-Mar-18 07:05 66.357171 -16.229737 116 36963ft 506kts
20-Mar-18 07:06 66.297234 -15.911965 116 36970ft 506kts
20-Mar-18 07:07 66.236826 -15.596619 117 36977ft 506kts
20-Mar-18 07:08 66.175656 -15.282151 117 36977ft 508kts
20-Mar-18 07:09 66.113490 -14.967396 117 37052ft 509kts
20-Mar-18 07:10 66.050745 -14.654460 117 37051ft 510kts
20-Mar-18 07:11 65.987070 -14.341628 117 37048ft 511kts
20-Mar-18 07:12 65.922925 -14.031127 117 37020ft 511kts
20-Mar-18 07:13 65.861015 -13.735735 118 37021ft 511kts
20-Mar-18 07:14 65.795448 -13.427307 118 37021ft 511kts
20-Mar-18 07:15 65.729442 -13.121290 118 37018ft 512kts
20-Mar-18 07:16 65.662715 -12.816351 118 37018ft 512kts
20-Mar-18 07:17 65.595009 -12.511270 118 37019ft 513kts
20-Mar-18 07:18 65.526873 -12.208579 119 37020ft 514kts
20-Mar-18 07:19 65.458001 -11.906888 119 36994ft 515kts
20-Mar-18 07:20 65.388280 -11.605690 119 36997ft 515kts
20-Mar-18 07:21 65.318188 -11.307032 119 37001ft 515kts
20-Mar-18 07:22 65.247299 -11.009088 119 37087ft 515kts
20-Mar-18 07:23 65.179139 -10.726387 120 37096ft 515kts
20-Mar-18 07:24 65.108084 -10.431031 120 37103ft 515kts
20-Mar-18 07:25 65.034766 -10.138449 120 37109ft 515kts
20-Mar-18 07:26 64.958128 -9.853064 126 37116ft 515kts
20-Mar-18 07:27 64.872389 -9.582209 126 37122ft 516kts
20-Mar-18 07:28 64.787007 -9.310201 125 37128ft 516kts
20-Mar-18 07:29 64.703862 -9.036544 126 37134ft 516kts
20-Mar-18 07:30 64.619044 -8.766584 126 37140ft 516kts
20-Mar-18 07:31 64.533274 -8.497715 126 37146ft 516kts
20-Mar-18 07:32 64.447301 -8.231509 126 37142ft 516kts
20-Mar-18 07:33 64.364588 -7.978368 127 37144ft 516kts
20-Mar-18 07:34 64.277424 -7.714643 127 37138ft 516kts
20-Mar-18 07:35 64.190075 -7.453446 127 37146ft 516kts
20-Mar-18 07:36 64.101882 -7.192776 127 37163ft 517kts
20-Mar-18 07:37 64.013233 -6.933781 127 37171ft 518kts
20-Mar-18 07:38 63.924298 -6.676918 127 37177ft 516kts
20-Mar-18 07:39 63.834614 -6.420842 127 37183ft 518kts
20-Mar-18 07:40 63.744543 -6.166578 128 37187ft 518kts
20-Mar-18 07:41 63.654049 -5.913988 128 37191ft 518kts
20-Mar-18 07:42 63.562820 -5.662202 128 37196ft 518kts
20-Mar-18 07:43 63.477623 -5.429604 128 37199ft 518kts
20-Mar-18 07:44 63.385908 -5.181859 129 37202ft 518kts
20-Mar-18 07:45 63.293467 -4.934911 129 37204ft 518kts
20-Mar-18 07:46 63.200922 -4.690387 129 37206ft 518kts
20-Mar-18 07:47 63.107659 -4.446646 129 37207ft 518kts
20-Mar-18 07:48 63.014317 -4.205334 129 37208ft 517kts
20-Mar-18 07:49 62.921056 -3.966801 130 37210ft 520kts
20-Mar-18 07:50 62.826267 -3.726961 130 37212ft 519kts
20-Mar-18 07:51 62.731430 -3.489542 130 37214ft 519kts
20-Mar-18 07:52 62.636192 -3.253660 130 37217ft 519kts
20-Mar-18 07:53 62.544550 -3.028994 130 37226ft 519kts
20-Mar-18 07:54 62.448541 -2.796035 130 37250ft 519kts
20-Mar-18 07:55 62.352209 -2.564724 130 37260ft 519kts
20-Mar-18 07:56 62.271263 -2.372205 131 37268ft 518kts
20-Mar-18 07:57 62.158123 -2.105881 131 37278ft 518kts
20-Mar-18 07:58 62.060755 -1.879219 131 37291ft 518kts
20-Mar-18 07:59 61.978995 -1.690659 131 37296ft 518kts
20-Mar-18 08:00 61.880952 -1.466647 131 37303ft 518kts
20-Mar-18 08:01 61.765821 -1.206455 131 37282ft 518kts
20-Mar-18 08:02 61.683600 -1.022489 131 37282ft 518kts
20-Mar-18 08:03 61.591470 -0.818156 132 37285ft 517kts
20-Mar-18 08:04 61.475286 -0.563130 132 37276ft 517kts
20-Mar-18 08:05 61.392737 -0.381788 132 37291ft 517kts
20-Mar-18 08:06 61.292719 -0.167465 132 37288ft 516kts
20-Mar-18 08:07 61.191451 0.044961 135 37284ft 517kts
20-Mar-18 08:08 61.081287 0.238296 138 37282ft 520kts
20-Mar-18 08:09 60.971085 0.430407 137 37292ft 519kts
20-Mar-18 08:10 60.861778 0.624879 137 37289ft 518kts
20-Mar-18 08:11 60.752105 0.816791 137 37288ft 519kts
20-Mar-18 08:12 60.641606 1.007677 137 37288ft 519kts
20-Mar-18 08:13 60.538850 1.183516 137 37290ft 520kts
20-Mar-18 08:14 60.428095 1.371361 137 37291ft 519kts
20-Mar-18 08:15 60.316856 1.558298 137 37301ft 519kts
20-Mar-18 08:16 60.205630 1.743504 137 37306ft 519kts
20-Mar-18 08:17 60.094208 1.927376 138 37300ft 519kts
20-Mar-18 08:18 59.982174 2.110581 138 37306ft 519kts
20-Mar-18 08:19 59.870239 2.291980 138 37310ft 519kts
20-Mar-18 08:20 59.758107 2.472082 138 37314ft 519kts
20-Mar-18 08:21 59.645372 2.651547 138 37315ft 519kts
20-Mar-18 08:22 59.532792 2.829180 138 37318ft 519kts
20-Mar-18 08:23 59.425003 2.997788 138 37321ft 519kts
20-Mar-18 08:24 59.311533 3.173778 138 37323ft 519kts
20-Mar-18 08:25 59.198232 3.347974 138 37326ft 518kts
20-Mar-18 08:26 59.084335 3.521569 139 37328ft 519kts
20-Mar-18 08:27 58.970669 3.693323 139 37329ft 518kts
20-Mar-18 08:28 58.856805 3.863901 139 37333ft 518kts
20-Mar-18 08:29 58.742435 4.033775 139 37334ft 518kts
20-Mar-18 08:30 58.628387 4.201746 139 37335ft 517kts
20-Mar-18 08:31 58.513759 4.369147 139 37335ft 516kts
20-Mar-18 08:32 58.399359 4.534815 139 37328ft 517kts
20-Mar-18 08:33 58.289815 4.692154 139 37317ft 517kts
20-Mar-18 08:34 58.174439 4.856539 140 37319ft 517kts
20-Mar-18 08:35 58.059413 5.019062 140 37320ft 517kts
20-Mar-18 08:36 57.944108 5.180651 140 37321ft 516kts
20-Mar-18 08:37 57.828454 5.341404 140 37324ft 516kts
20-Mar-18 08:38 57.712894 5.500723 140 37324ft 517kts
20-Mar-18 08:39 57.597019 5.659187 140 37307ft 517kts
20-Mar-18 08:40 57.480582 5.817141 141 37299ft 517kts
20-Mar-18 08:41 57.364317 5.973599 141 37296ft 517kts
20-Mar-18 08:42 57.247633 6.129652 140 37296ft 515kts
20-Mar-18 08:43 57.139587 6.273252 142 37296ft 515kts
20-Mar-18 08:44 57.023181 6.425675 142 37296ft 514kts
20-Mar-18 08:45 56.903605 6.570643 145 37297ft 514kts
20-Mar-18 08:46 56.782681 6.709863 145 37297ft 514kts
20-Mar-18 08:47 56.662398 6.849672 144 37297ft 513kts
20-Mar-18 08:48 56.541968 6.989448 145 37297ft 512kts
20-Mar-18 08:49 56.421736 7.127097 145 37296ft 511kts
20-Mar-18 08:50 56.301596 7.263519 145 37295ft 510kts
20-Mar-18 08:51 56.181122 7.399287 145 37294ft 510kts
20-Mar-18 08:52 56.061027 7.533618 146 37291ft 509kts
20-Mar-18 08:53 55.946015 7.661327 146 37290ft 508kts
20-Mar-18 08:54 55.826070 7.793559 146 37290ft 508kts
20-Mar-18 08:55 55.705984 7.924977 146 37290ft 508kts
20-Mar-18 08:56 55.585358 8.056024 146 37290ft 507kts
20-Mar-18 08:57 55.465216 8.185601 146 37293ft 506kts
20-Mar-18 08:58 55.344991 8.314338 146 37295ft 506kts
20-Mar-18 08:59 55.224494 8.442445 146 37294ft 505kts
20-Mar-18 09:00 55.104672 8.569672 147 37303ft 504kts
20-Mar-18 09:01 54.985364 8.694246 147 37302ft 503kts
20-Mar-18 09:02 54.861336 8.811385 156 37300ft 505kts
20-Mar-18 09:03 54.735963 8.892949 157 37296ft 505kts
20-Mar-18 09:04 54.604586 8.980419 157 37294ft 505kts
20-Mar-18 09:05 54.473632 9.066977 157 37292ft 504kts
20-Mar-18 09:06 54.342724 9.152460 158 37290ft 503kts
20-Mar-18 09:07 54.210745 9.234693 158 37290ft 503kts
20-Mar-18 09:08 54.079250 9.316350 158 37289ft 503kts
20-Mar-18 09:09 53.947918 9.398281 158 37288ft 503kts
20-Mar-18 09:10 53.816387 9.479492 158 37288ft 502kts
20-Mar-18 09:11 53.685132 9.559450 158 37286ft 502kts
20-Mar-18 09:12 53.553605 9.640106 158 37289ft 502kts
20-Mar-18 09:13 53.431648 9.714665 158 37287ft 503kts
20-Mar-18 09:14 53.300402 9.794741 158 37280ft 502kts
20-Mar-18 09:15 53.168811 9.875192 158 37266ft 502kts
20-Mar-18 09:16 53.037485 9.954105 158 37245ft 502kts
20-Mar-18 09:17 52.904817 10.026507 168 37233ft 505kts
20-Mar-18 09:18 52.764609 10.048021 175 37231ft 505kts
20-Mar-18 09:19 52.624542 10.064549 174 37230ft 505kts
20-Mar-18 09:20 52.484296 10.081785 174 37233ft 506kts
20-Mar-18 09:21 52.343640 10.098973 174 37230ft 506kts
20-Mar-18 09:22 52.203435 10.115965 174 37226ft 506kts
20-Mar-18 09:23 52.069228 10.132130 174 37224ft 507kts
20-Mar-18 09:24 51.928323 10.148996 174 37219ft 507kts
20-Mar-18 09:25 51.787913 10.165700 174 37214ft 506kts
20-Mar-18 09:26 51.647243 10.182346 174 37213ft 506kts
20-Mar-18 09:27 51.507157 10.198841 174 37207ft 505kts
20-Mar-18 09:28 51.367143 10.215146 174 37199ft 504kts
20-Mar-18 09:29 51.226456 10.217391 180 37182ft 505kts
20-Mar-18 09:30 51.086160 10.215115 180 37183ft 504kts
20-Mar-18 09:31 50.946184 10.212233 180 37178ft 504kts
20-Mar-18 09:32 50.931317 10.211952 180 37176ft 504kts
20-Mar-18 09:33 50.931317 10.211952 180 37176ft 504kts
20-Mar-18 09:34 50.931317 10.211952 180 37176ft 504kts
20-Mar-18 09:35 50.931317 10.211952 180 37176ft 504kts
20-Mar-18 09:36 50.931317 10.211952 180 37176ft 504kts
20-Mar-18 09:37 50.931317 10.211952 180 37176ft 504kts
20-Mar-18 09:38 50.931317 10.211952 180 37176ft 504kts
20-Mar-18 09:39 50.931317 10.211952 180 37176ft 504kts
20-Mar-18 09:40 50.931317 10.211952 180 37176ft 504kts
20-Mar-18 09:41 50.931317 10.211952 180 37176ft 504kts
20-Mar-18 09:42 50.931317 10.211952 180 37176ft 504kts
20-Mar-18 09:43 50.931317 10.211952 180 37176ft 504kts
20-Mar-18 09:44 50.931317 10.211952 180 37176ft 504kts
20-Mar-18 09:45 50.931317 10.211952 180 37176ft 504kts
20-Mar-18 09:46 50.931317 10.211952 180 37176ft 504kts
20-Mar-18 09:47 50.931317 10.211952 180 37176ft 504kts
20-Mar-18 09:48 50.931317 10.211952 180 37176ft 504kts
20-Mar-18 09:49 50.931317 10.211952 180 37176ft 504kts
20-Mar-18 09:50 50.931317 10.211952 180 37176ft 504kts
20-Mar-18 09:51 50.931317 10.211952 180 37176ft 504kts
20-Mar-18 09:52 50.931317 10.211952 180 37176ft 504kts
20-Mar-18 09:53 50.931317 10.211952 180 37176ft 504kts
20-Mar-18 09:54 50.931317 10.211952 180 37176ft 504kts
20-Mar-18 09:55 50.931317 10.211952 180 37176ft 504kts
20-Mar-18 09:56 50.931317 10.211952 180 37176ft 504kts
20-Mar-18 09:57 50.931317 10.211952 180 37176ft 504kts
20-Mar-18 09:58 50.931317 10.211952 180 37176ft 504kts
20-Mar-18 09:59 50.931317 10.211952 180 37176ft 504kts
20-Mar-18 10:00 50.931317 10.211952 180 37176ft 504kts
20-Mar-18 10:01 50.931317 10.211952 180 37176ft 504kts
20-Mar-18 10:02 50.931317 10.211952 180 37176ft 504kts
20-Mar-18 10:03 50.931317 10.211952 180 37176ft 504kts
20-Mar-18 10:04 50.931317 10.211952 180 37176ft 504kts
20-Mar-18 10:05 50.931317 10.211952 180 37176ft 504kts
20-Mar-18 10:06 50.931317 10.211952 180 37176ft 504kts
20-Mar-18 10:07 50.931317 10.211952 180 37176ft 504kts
20-Mar-18 10:08 50.931317 10.211952 180 37176ft 504kts
20-Mar-18 10:09 50.931317 10.211952 180 37176ft 504kts
20-Mar-18 10:10 50.931317 10.211952 180 37176ft 504kts
20-Mar-18 10:11 50.931317 10.211952 180 37176ft 504kts
20-Mar-18 10:12 50.931317 10.211952 180 37176ft 504kts
20-Mar-18 10:13 50.931317 10.211952 180 37176ft 504kts
20-Mar-18 10:14 50.931317 10.211952 180 37176ft 504kts
20-Mar-18 10:15 50.931317 10.211952 180 37176ft 504kts
20-Mar-18 10:16 50.931317 10.211952 180 37176ft 504kts
20-Mar-18 10:17 50.931317 10.211952 180 37176ft 504kts
20-Mar-18 10:18 50.931317 10.211952 180 37176ft 504kts
20-Mar-18 10:19 50.831523 10.205760 192 37190ft 503kts
20-Mar-18 10:20 50.732453 10.068307 252 36158ft 484kts
20-Mar-18 10:21 50.689028 9.862741 243 32782ft 502kts
20-Mar-18 10:22 50.620426 9.680161 228 30784ft 495kts
20-Mar-18 10:23 50.502215 9.599093 198 28478ft 491kts
20-Mar-18 10:24 50.419765 9.446050 265 26346ft 456kts
20-Mar-18 10:25 50.432812 9.259286 266 24328ft 442kts
20-Mar-18 10:26 50.375056 9.087346 248 22450ft 442kts
20-Mar-18 10:27 50.318815 8.920997 221 20535ft 442kts
20-Mar-18 10:28 50.206503 8.899296 147 18764ft 407kts
20-Mar-18 10:29 50.163488 9.033101 68 16847ft 337kts
20-Mar-18 10:30 50.230359 9.120841 26 14890ft 323kts
20-Mar-18 10:31 50.298105 9.204627 67 13186ft 322kts
20-Mar-18 10:32 50.311603 9.332955 100 12682ft 294kts
20-Mar-18 10:33 50.247280 9.383808 196 11659ft 302kts
20-Mar-18 10:34 50.213290 9.281567 271 10021ft 281kts
20-Mar-18 10:35 50.194743 9.161522 252 8116ft 293kts
20-Mar-18 10:36 50.167955 9.050147 254 6880ft 258kts
20-Mar-18 10:37 50.143148 8.944204 254 5154ft 247kts
20-Mar-18 10:38 50.122647 8.857136 255 5027ft 200kts
20-Mar-18 10:39 50.098063 8.775743 234 4276ft 212kts
20-Mar-18 10:40 50.068148 8.699627 250 2733ft 201kts
20-Mar-18 10:41 50.052812 8.618256 243 881ft 186kts
20-Mar-18 10:42 50.037899 8.556687 249 378ft 92kts
20-Mar-18 10:43 50.036397 8.543084 11 377ft 10kts
20-Mar-18 10:44 50.039650 8.543517 75 377ft 12kts
20-Mar-18 10:45 50.039962 8.545530 69 377ft 0kts
20-Mar-18 10:46 50.039962 8.545530 69 377ft 0kts

Navigation Log

Ident Type
Flight plan parsing failed, navigation log unavailable